Time;durP1;ratioP1;P1;durP2;ratioP2;P2;SDS_P1;SDS_P2;PMS_P1;PMS_P2;Temp;Humidity;BMP_temperature;BMP_pressure;BME280_temperature;BME280_humidity;BME280_pressure;Samples;Min_cycle;Max_cycle;Signal;HPM_P1;HPM_P2
2022/01/21 00:01:27;;;;;;;6.03;2.40;;;;;;;;;;4954315;28;20289;-69
2022/01/21 00:03:53;;;;;;;11.38;3.10;;;;;;;;;;4970513;28;20436;-69
2022/01/21 00:06:18;;;;;;;11.02;3.15;;;;;;;;;;4970958;28;20495;-69
2022/01/21 00:08:46;;;;;;;9.80;3.35;;;;;;;;;;4971709;28;20503;-69
2022/01/21 00:11:13;;;;;;;8.88;3.42;;;;;;;;;;4954293;28;20033;-69
2022/01/21 00:13:39;;;;;;;8.90;3.25;;;;;;;;;;4971755;28;20502;-70
2022/01/21 00:16:08;;;;;;;11.32;4.25;;;;;;;;;;4969778;28;20356;-69
2022/01/21 00:18:36;;;;;;;7.05;2.42;;;;;;;;;;4971279;28;20325;-69
2022/01/21 00:31:58;;;;;;;8.13;2.67;;;;;;;;;;4971230;28;20348;-69
2022/01/21 00:34:24;;;;;;;8.05;2.40;;;;;;;;;;4969768;28;20355;-69
2022/01/21 00:36:49;;;;;;;8.98;3.10;;;;;;;;;;4953365;28;20324;-69
2022/01/21 00:39:15;;;;;;;7.22;2.92;;;;;;;;;;4970976;28;20091;-69
2022/01/21 00:41:56;;;;;;;7.85;2.67;;;;;;;;;;4971090;28;20106;-69
2022/01/21 00:44:21;;;;;;;10.23;2.97;;;;;;;;;;4971027;28;20047;-69
2022/01/21 00:46:48;;;;;;;6.07;2.35;;;;;;;;;;4971302;28;20033;-69
2022/01/21 00:49:14;;;;;;;9.27;2.72;;;;;;;;;;4970789;28;20443;-69
2022/01/21 00:51:39;;;;;;;6.65;2.90;;;;;;;;;;4970702;28;20468;-69
2022/01/21 00:54:05;;;;;;;5.18;2.22;;;;;;;;;;4971026;28;20335;-69
2022/01/21 00:56:31;;;;;;;10.23;3.05;;;;;;;;;;4972079;28;20408;-69
2022/01/21 00:58:57;;;;;;;7.18;3.00;;;;;;;;;;4970503;28;20460;-69
2022/01/21 01:01:22;;;;;;;11.55;3.42;;;;;;;;;;4964588;28;20415;-69
2022/01/21 01:03:48;;;;;;;7.55;2.63;;;;;;;;;;4921679;28;20437;-70
2022/01/21 01:06:13;;;;;;;6.97;2.80;;;;;;;;;;4950182;28;20559;-69
2022/01/21 01:08:38;;;;;;;5.25;2.53;;;;;;;;;;4950875;28;20357;-69
2022/01/21 01:21:44;;;;;;;5.93;2.50;;;;;;;;;;4936677;28;20425;-70
2022/01/21 01:29:22;;;;;;;6.80;2.75;;;;;;;;;;4950943;28;20069;-69
2022/01/21 01:31:48;;;;;;;9.23;2.10;;;;;;;;;;4965381;28;20052;-70
2022/01/21 01:34:14;;;;;;;4.97;2.47;;;;;;;;;;4932882;28;20428;-69
2022/01/21 01:36:42;;;;;;;5.35;2.30;;;;;;;;;;4932921;28;20022;-69
2022/01/21 01:39:16;;;;;;;7.65;2.25;;;;;;;;;;4933092;28;20033;-69
2022/01/21 01:49:38;;;;;;;6.65;2.67;;;;;;;;;;4935597;28;20379;-69
2022/01/21 01:52:13;;;;;;;5.90;2.20;;;;;;;;;;4932776;28;20022;-69
2022/01/21 01:54:59;;;;;;;4.20;2.15;;;;;;;;;;4932538;28;20375;-69
2022/01/21 01:57:24;;;;;;;4.93;2.25;;;;;;;;;;4950633;28;20444;-69
2022/01/21 01:59:50;;;;;;;6.28;1.95;;;;;;;;;;4951640;28;20349;-69
2022/01/21 02:02:17;;;;;;;6.20;2.25;;;;;;;;;;4949793;28;20472;-69
2022/01/21 02:04:44;;;;;;;6.93;1.77;;;;;;;;;;4948963;28;20434;-69
2022/01/21 02:07:10;;;;;;;4.20;2.10;;;;;;;;;;4931663;28;20364;-71
2022/01/21 02:09:36;;;;;;;5.40;2.10;;;;;;;;;;4964746;28;20456;-69
2022/01/21 02:12:03;;;;;;;4.00;2.33;;;;;;;;;;4933182;28;20030;-69
2022/01/21 02:14:33;;;;;;;4.90;2.13;;;;;;;;;;4933256;28;20329;-68
2022/01/21 02:22:16;;;;;;;4.18;1.75;;;;;;;;;;4935931;28;20375;-69
2022/01/21 02:24:54;;;;;;;6.57;2.08;;;;;;;;;;4932355;28;20380;-69
2022/01/21 02:27:20;;;;;;;4.40;1.83;;;;;;;;;;4950025;28;20460;-69
2022/01/21 02:29:51;;;;;;;4.07;1.67;;;;;;;;;;4931911;28;20353;-71
2022/01/21 02:32:18;;;;;;;3.97;2.03;;;;;;;;;;4932964;28;20049;-69
2022/01/21 02:34:45;;;;;;;4.47;1.50;;;;;;;;;;4931684;28;20630;-69
2022/01/21 02:37:12;;;;;;;3.25;1.42;;;;;;;;;;4947881;28;20444;-69
2022/01/21 02:39:38;;;;;;;5.85;1.95;;;;;;;;;;4931998;28;20109;-68
2022/01/21 02:42:03;;;;;;;6.85;2.25;;;;;;;;;;4932536;28;20578;-69
2022/01/21 02:44:29;;;;;;;2.72;1.75;;;;;;;;;;4932729;28;20344;-69
2022/01/21 02:46:58;;;;;;;5.65;1.70;;;;;;;;;;4949488;28;20022;-69
2022/01/21 02:49:25;;;;;;;4.07;1.58;;;;;;;;;;4950271;28;20444;-69
2022/01/21 02:51:51;;;;;;;5.10;1.90;;;;;;;;;;4949424;28;20061;-68
2022/01/21 02:54:17;;;;;;;3.22;1.52;;;;;;;;;;4932318;28;20470;-69
2022/01/21 02:56:42;;;;;;;7.95;1.90;;;;;;;;;;4949398;28;20026;-68
2022/01/21 02:59:08;;;;;;;5.45;1.75;;;;;;;;;;4916602;28;20352;-69
2022/01/21 03:01:35;;;;;;;5.38;1.90;;;;;;;;;;4932510;28;20376;-69
2022/01/21 03:04:02;;;;;;;8.95;1.65;;;;;;;;;;4949117;28;20451;-68
2022/01/21 03:06:28;;;;;;;3.42;1.30;;;;;;;;;;4928078;28;20450;-70
2022/01/21 03:08:57;;;;;;;2.97;1.48;;;;;;;;;;4944498;28;20464;-69
2022/01/21 03:11:24;;;;;;;7.93;1.77;;;;;;;;;;4928487;28;20092;-69
2022/01/21 03:13:49;;;;;;;6.00;1.90;;;;;;;;;;4929088;28;20433;-69
2022/01/21 03:16:15;;;;;;;4.40;1.77;;;;;;;;;;4944959;28;20457;-69
2022/01/21 03:18:41;;;;;;;6.28;2.03;;;;;;;;;;4929598;28;20437;-69
2022/01/21 03:21:09;;;;;;;3.45;1.52;;;;;;;;;;4934039;28;20440;-69
2022/01/21 03:23:35;;;;;;;1.70;1.13;;;;;;;;;;4934488;28;20384;-69
2022/01/21 03:26:00;;;;;;;5.85;1.48;;;;;;;;;;4916385;28;20408;-68
2022/01/21 03:28:25;;;;;;;3.05;1.38;;;;;;;;;;4933335;28;20027;-70
2022/01/21 03:30:55;;;;;;;4.05;1.45;;;;;;;;;;4933371;28;20337;-69
2022/01/21 03:33:20;;;;;;;3.17;1.27;;;;;;;;;;4947712;28;20030;-69
2022/01/21 03:35:45;;;;;;;4.97;1.25;;;;;;;;;;4931739;28;20444;-68
2022/01/21 03:38:11;;;;;;;7.43;2.38;;;;;;;;;;4933674;28;20329;-68
2022/01/21 03:40:36;;;;;;;3.10;1.35;;;;;;;;;;4933644;28;20111;-68
2022/01/21 03:43:01;;;;;;;2.00;1.20;;;;;;;;;;4932092;28;20436;-68
2022/01/21 03:45:27;;;;;;;2.83;1.40;;;;;;;;;;4931579;28;20349;-69
2022/01/21 03:47:52;;;;;;;4.47;1.60;;;;;;;;;;4932871;28;20433;-68
2022/01/21 03:50:22;;;;;;;3.78;1.35;;;;;;;;;;4947849;28;20427;-68
2022/01/21 03:52:47;;;;;;;2.42;1.50;;;;;;;;;;4917558;28;20397;-68
2022/01/21 03:55:13;;;;;;;5.95;2.08;;;;;;;;;;4933112;28;20349;-68
2022/01/21 03:57:38;;;;;;;2.70;1.17;;;;;;;;;;4931801;28;20437;-68
2022/01/21 04:00:06;;;;;;;3.95;1.60;;;;;;;;;;4931945;28;20445;-68
2022/01/21 04:02:31;;;;;;;3.85;1.40;;;;;;;;;;4931639;28;20437;-68
2022/01/21 04:04:57;;;;;;;2.80;1.52;;;;;;;;;;4938258;28;20464;-68
2022/01/21 04:07:22;;;;;;;2.58;1.38;;;;;;;;;;4952151;28;20467;-69
2022/01/21 04:09:47;;;;;;;5.13;1.75;;;;;;;;;;4950734;28;20373;-68
2022/01/21 04:12:13;;;;;;;3.60;1.30;;;;;;;;;;4952226;28;20482;-68
2022/01/21 04:14:38;;;;;;;3.53;1.45;;;;;;;;;;4951894;28;20511;-68
2022/01/21 04:17:04;;;;;;;4.15;1.42;;;;;;;;;;4952048;28;20325;-68
2022/01/21 04:19:29;;;;;;;4.57;1.60;;;;;;;;;;4934106;28;20465;-69
2022/01/21 04:21:55;;;;;;;2.88;1.52;;;;;;;;;;4951807;28;20053;-69
2022/01/21 04:24:20;;;;;;;5.90;1.30;;;;;;;;;;4934643;28;20503;-68
2022/01/21 04:26:45;;;;;;;2.90;1.27;;;;;;;;;;4933767;28;20061;-69
2022/01/21 04:29:11;;;;;;;2.35;1.23;;;;;;;;;;4953243;28;20472;-68
2022/01/21 04:31:36;;;;;;;5.07;1.70;;;;;;;;;;4950846;28;20506;-68
2022/01/21 04:34:01;;;;;;;2.10;1.08;;;;;;;;;;4951769;28;20518;-68
2022/01/21 04:36:27;;;;;;;2.05;1.02;;;;;;;;;;4918693;28;20405;-68
2022/01/21 04:38:55;;;;;;;4.80;1.90;;;;;;;;;;4951379;28;20505;-68
2022/01/21 04:41:40;;;;;;;3.85;1.00;;;;;;;;;;4952416;28;20432;-68
2022/01/21 04:49:53;;;;;;;3.65;1.23;;;;;;;;;;4909949;28;20113;-68
2022/01/21 04:52:20;;;;;;;2.00;1.23;;;;;;;;;;4910076;28;20450;-68
2022/01/21 04:54:45;;;;;;;3.38;1.20;;;;;;;;;;4928164;28;20472;-69
2022/01/21 04:57:11;;;;;;;1.85;1.02;;;;;;;;;;4966466;28;20448;-68
2022/01/21 04:59:37;;;;;;;2.60;1.50;;;;;;;;;;4950975;28;20372;-68
2022/01/21 05:02:03;;;;;;;1.27;0.95;;;;;;;;;;4951048;28;20449;-68
2022/01/21 05:04:28;;;;;;;3.22;1.20;;;;;;;;;;4932851;28;20417;-69
2022/01/21 05:06:54;;;;;;;5.30;1.38;;;;;;;;;;4950819;28;20544;-68
2022/01/21 05:09:23;;;;;;;1.90;0.95;;;;;;;;;;4951237;28;20354;-68
2022/01/21 05:11:51;;;;;;;5.57;1.25;;;;;;;;;;4951758;28;20376;-71
2022/01/21 05:14:27;;;;;;;2.42;1.20;;;;;;;;;;4933465;28;20018;-68
2022/01/21 05:17:01;;;;;;;3.53;1.58;;;;;;;;;;4934581;28;20433;-68
2022/01/21 05:19:26;;;;;;;2.72;1.10;;;;;;;;;;4950765;28;20429;-68
2022/01/21 05:21:52;;;;;;;3.20;0.93;;;;;;;;;;4950601;28;20336;-68
2022/01/21 05:24:20;;;;;;;2.25;1.30;;;;;;;;;;4933464;28;20048;-68
2022/01/21 05:26:52;;;;;;;1.73;1.10;;;;;;;;;;4966095;28;20357;-68
2022/01/21 05:29:19;;;;;;;2.70;1.05;;;;;;;;;;4950633;28;20049;-68
2022/01/21 05:31:44;;;;;;;4.18;1.35;;;;;;;;;;4933040;28;20033;-68
2022/01/21 05:34:10;;;;;;;2.38;1.17;;;;;;;;;;4950835;28;20436;-68
2022/01/21 05:36:37;;;;;;;2.10;1.30;;;;;;;;;;4951132;28;20478;-68
2022/01/21 05:39:03;;;;;;;2.78;1.20;;;;;;;;;;4950560;28;20128;-68
2022/01/21 05:41:28;;;;;;;4.32;1.50;;;;;;;;;;4965154;28;20417;-69
2022/01/21 05:44:01;;;;;;;7.57;1.40;;;;;;;;;;4951761;28;20026;-68
2022/01/21 05:46:54;;;;;;;1.40;0.90;;;;;;;;;;4950728;28;20033;-70
2022/01/21 05:49:24;;;;;;;3.25;1.30;;;;;;;;;;4951445;28;20333;-68
2022/01/21 05:51:51;;;;;;;4.05;1.15;;;;;;;;;;4964723;28;20413;-68
2022/01/21 05:54:23;;;;;;;2.40;1.23;;;;;;;;;;4949806;28;20333;-69
2022/01/21 05:56:48;;;;;;;1.48;1.10;;;;;;;;;;4950214;28;20227;-68
2022/01/21 05:59:13;;;;;;;4.53;1.40;;;;;;;;;;4949943;28;20029;-69
2022/01/21 06:01:39;;;;;;;2.92;1.20;;;;;;;;;;4950043;28;20503;-68
2022/01/21 06:04:04;;;;;;;2.05;1.27;;;;;;;;;;4950918;28;20471;-68
2022/01/21 06:06:30;;;;;;;2.65;1.05;;;;;;;;;;4949529;28;20453;-68
2022/01/21 06:08:55;;;;;;;3.08;1.23;;;;;;;;;;4950001;28;20429;-68
2022/01/21 06:11:21;;;;;;;3.85;1.20;;;;;;;;;;4950452;28;20340;-69
2022/01/21 06:13:49;;;;;;;2.08;1.10;;;;;;;;;;4950739;28;20432;-69
2022/01/21 06:16:15;;;;;;;3.03;1.10;;;;;;;;;;4933233;28;20095;-68
2022/01/21 06:18:41;;;;;;;1.45;0.93;;;;;;;;;;4949608;28;20034;-69
2022/01/21 06:21:06;;;;;;;2.35;1.45;;;;;;;;;;4932232;28;20481;-68
2022/01/21 06:23:31;;;;;;;3.58;1.30;;;;;;;;;;4949371;28;20483;-68
2022/01/21 06:25:57;;;;;;;3.58;1.63;;;;;;;;;;4931782;28;20527;-68
2022/01/21 06:28:24;;;;;;;1.52;1.00;;;;;;;;;;4932966;28;20499;-68
2022/01/21 06:30:49;;;;;;;2.58;1.23;;;;;;;;;;4949697;28;20484;-69
2022/01/21 06:33:15;;;;;;;3.30;1.27;;;;;;;;;;4949986;28;20357;-69
2022/01/21 06:35:40;;;;;;;3.83;1.08;;;;;;;;;;4932298;28;20073;-70
2022/01/21 06:38:05;;;;;;;2.45;0.90;;;;;;;;;;4950107;28;20430;-69
2022/01/21 06:40:31;;;;;;;1.80;1.20;;;;;;;;;;4931799;28;20387;-69
2022/01/21 06:43:01;;;;;;;2.30;1.05;;;;;;;;;;4931894;28;20306;-68
2022/01/21 06:45:26;;;;;;;3.67;1.05;;;;;;;;;;4949587;28;20391;-68
2022/01/21 06:47:51;;;;;;;2.58;0.80;;;;;;;;;;4949640;28;20056;-69
2022/01/21 06:50:17;;;;;;;5.10;1.40;;;;;;;;;;4950455;28;20022;-69
2022/01/21 06:52:42;;;;;;;4.60;1.77;;;;;;;;;;4949485;28;20034;-68
2022/01/21 06:55:08;;;;;;;2.17;1.27;;;;;;;;;;4952728;28;20172;-69
2022/01/21 06:57:38;;;;;;;2.75;1.15;;;;;;;;;;4969044;28;20105;-68
2022/01/21 07:00:05;;;;;;;4.05;1.33;;;;;;;;;;4953135;28;20486;-68
2022/01/21 07:02:30;;;;;;;3.97;1.30;;;;;;;;;;4935855;28;20473;-69
2022/01/21 07:04:56;;;;;;;3.83;1.13;;;;;;;;;;4952862;28;20423;-68
2022/01/21 07:07:21;;;;;;;2.65;0.95;;;;;;;;;;4953457;28;20522;-68
2022/01/21 07:09:46;;;;;;;2.47;1.00;;;;;;;;;;4953403;28;20348;-69
2022/01/21 07:12:12;;;;;;;4.43;1.50;;;;;;;;;;4967760;28;20506;-68
2022/01/21 07:14:37;;;;;;;3.85;1.60;;;;;;;;;;4920158;28;20432;-68
2022/01/21 07:17:03;;;;;;;1.83;1.15;;;;;;;;;;4952717;28;20034;-68
2022/01/21 07:19:28;;;;;;;1.20;0.80;;;;;;;;;;4953134;28;20479;-68
2022/01/21 07:21:54;;;;;;;5.53;1.63;;;;;;;;;;4954131;28;20554;-68
2022/01/21 07:24:19;;;;;;;3.38;1.35;;;;;;;;;;4935951;28;20033;-70
2022/01/21 07:26:44;;;;;;;2.33;1.13;;;;;;;;;;4953378;28;20623;-68
2022/01/21 07:29:10;;;;;;;3.42;1.27;;;;;;;;;;4952836;28;20467;-69
2022/01/21 07:31:35;;;;;;;3.03;1.15;;;;;;;;;;4934863;28;20324;-68
2022/01/21 07:34:04;;;;;;;7.45;1.33;;;;;;;;;;4953913;28;20384;-69
2022/01/21 07:36:30;;;;;;;2.85;1.40;;;;;;;;;;4952388;28;20427;-68
2022/01/21 07:38:56;;;;;;;3.08;1.40;;;;;;;;;;4934944;28;20358;-69
2022/01/21 07:41:21;;;;;;;2.40;1.15;;;;;;;;;;4935253;28;20388;-68
2022/01/21 07:43:46;;;;;;;3.33;1.58;;;;;;;;;;4952298;28;20099;-68
2022/01/21 07:46:12;;;;;;;23.70;1.85;;;;;;;;;;4934786;28;20506;-69
2022/01/21 07:48:37;;;;;;;2.58;1.38;;;;;;;;;;4953076;28;20117;-69
2022/01/21 07:51:02;;;;;;;4.43;1.80;;;;;;;;;;4935049;28;20313;-69
2022/01/21 07:53:28;;;;;;;4.97;1.73;;;;;;;;;;4952621;28;20309;-69
2022/01/21 07:55:53;;;;;;;7.75;1.75;;;;;;;;;;4952602;28;20340;-69
2022/01/21 07:58:19;;;;;;;6.43;1.35;;;;;;;;;;4934498;28;20441;-68
2022/01/21 08:00:45;;;;;;;6.00;1.75;;;;;;;;;;4967170;28;20131;-68
2022/01/21 08:03:12;;;;;;;4.50;2.38;;;;;;;;;;4951989;28;20077;-69
2022/01/21 08:05:37;;;;;;;9.95;1.42;;;;;;;;;;4950304;28;20386;-69
2022/01/21 08:08:03;;;;;;;4.72;2.33;;;;;;;;;;4951577;28;20050;-68
2022/01/21 08:10:28;;;;;;;4.97;1.75;;;;;;;;;;4952681;28;20448;-69
2022/01/21 08:12:54;;;;;;;4.90;1.80;;;;;;;;;;4952262;28;20056;-69
2022/01/21 08:15:19;;;;;;;4.78;1.88;;;;;;;;;;4952782;28;20135;-69
2022/01/21 08:17:44;;;;;;;4.85;1.85;;;;;;;;;;4952943;28;20337;-69
2022/01/21 08:20:10;;;;;;;3.70;1.42;;;;;;;;;;4951776;28;20033;-69
2022/01/21 08:22:36;;;;;;;5.85;1.77;;;;;;;;;;4952003;28;20360;-68
2022/01/21 08:25:03;;;;;;;4.28;1.63;;;;;;;;;;4934164;28;20380;-68
2022/01/21 08:27:28;;;;;;;6.13;2.35;;;;;;;;;;4950518;28;20369;-68
2022/01/21 08:29:53;;;;;;;3.75;1.40;;;;;;;;;;4951721;28;20440;-69
2022/01/21 08:32:20;;;;;;;2.63;1.35;;;;;;;;;;4951895;28;20590;-68
2022/01/21 08:34:45;;;;;;;4.65;2.35;;;;;;;;;;4951440;28;20384;-69
2022/01/21 08:37:11;;;;;;;2.60;1.63;;;;;;;;;;4951601;28;20419;-69
2022/01/21 08:39:36;;;;;;;4.00;1.77;;;;;;;;;;4950105;28;20427;-69
2022/01/21 08:42:03;;;;;;;8.60;1.98;;;;;;;;;;4951301;28;20456;-68
2022/01/21 08:44:28;;;;;;;3.83;1.88;;;;;;;;;;4933706;28;20460;-70
2022/01/21 08:46:54;;;;;;;5.90;2.05;;;;;;;;;;4966689;28;20554;-69
2022/01/21 08:49:20;;;;;;;6.03;1.73;;;;;;;;;;4951375;28;20479;-69
2022/01/21 08:51:52;;;;;;;3.88;1.50;;;;;;;;;;4951716;28;20416;-69
2022/01/21 08:54:18;;;;;;;2.47;1.20;;;;;;;;;;4951910;28;20412;-69
2022/01/21 08:56:44;;;;;;;4.05;1.40;;;;;;;;;;4933725;28;20405;-69
2022/01/21 08:59:09;;;;;;;5.75;2.33;;;;;;;;;;4951182;28;20396;-70
2022/01/21 09:01:35;;;;;;;5.18;1.60;;;;;;;;;;4950966;28;20026;-68
2022/01/21 09:04:00;;;;;;;4.55;1.85;;;;;;;;;;4933718;28;20033;-69
2022/01/21 09:06:28;;;;;;;5.85;2.40;;;;;;;;;;4950343;28;20445;-68
2022/01/21 09:08:55;;;;;;;4.23;1.60;;;;;;;;;;4950993;28;20306;-69
2022/01/21 09:11:20;;;;;;;9.38;2.03;;;;;;;;;;4953249;28;20571;-68
2022/01/21 09:13:45;;;;;;;4.38;1.70;;;;;;;;;;4933525;28;20504;-69
2022/01/21 09:16:11;;;;;;;4.20;1.58;;;;;;;;;;4951101;28;20356;-70
2022/01/21 09:18:57;;;;;;;7.05;2.72;;;;;;;;;;4932999;28;20448;-69
2022/01/21 09:21:25;;;;;;;3.28;1.52;;;;;;;;;;4935947;28;20448;-68
2022/01/21 09:23:52;;;;;;;5.93;2.03;;;;;;;;;;4950856;28;20681;-69
2022/01/21 09:26:19;;;;;;;3.92;1.80;;;;;;;;;;4965833;28;20115;-69
2022/01/21 09:28:44;;;;;;;2.17;1.20;;;;;;;;;;4933750;28;20340;-69
2022/01/21 09:31:10;;;;;;;7.22;2.10;;;;;;;;;;4950846;28;20376;-70
2022/01/21 09:33:36;;;;;;;2.42;1.48;;;;;;;;;;4950304;28;20435;-69
2022/01/21 09:36:02;;;;;;;8.18;1.83;;;;;;;;;;4950211;28;20514;-69
2022/01/21 09:38:29;;;;;;;5.93;2.20;;;;;;;;;;4950610;28;20387;-68
2022/01/21 09:40:54;;;;;;;2.88;1.35;;;;;;;;;;4951018;28;20450;-69
2022/01/21 09:43:21;;;;;;;7.05;2.30;;;;;;;;;;4951349;28;20321;-69
2022/01/21 09:45:51;;;;;;;5.68;1.85;;;;;;;;;;4932496;28;20030;-69
2022/01/21 09:48:24;;;;;;;4.00;1.90;;;;;;;;;;4964872;28;20415;-69
2022/01/21 09:50:52;;;;;;;3.72;1.98;;;;;;;;;;4932996;28;20471;-70
2022/01/21 09:53:24;;;;;;;4.30;1.98;;;;;;;;;;4933103;28;20026;-69
2022/01/21 09:55:50;;;;;;;4.97;2.33;;;;;;;;;;4950327;28;20433;-69
2022/01/21 09:58:18;;;;;;;4.60;1.48;;;;;;;;;;4931919;28;20459;-69
2022/01/21 10:00:44;;;;;;;4.80;2.25;;;;;;;;;;4965114;28;20436;-69
2022/01/21 10:03:09;;;;;;;4.63;2.13;;;;;;;;;;4932357;28;20341;-69
2022/01/21 10:05:35;;;;;;;6.68;2.50;;;;;;;;;;4928576;28;20409;-69
2022/01/21 10:08:02;;;;;;;4.00;1.80;;;;;;;;;;4930561;28;20361;-69
2022/01/21 10:10:27;;;;;;;4.80;2.15;;;;;;;;;;4945224;28;20437;-69
2022/01/21 10:13:01;;;;;;;5.40;1.80;;;;;;;;;;4929099;28;20455;-70
2022/01/21 10:15:26;;;;;;;4.10;1.98;;;;;;;;;;4929370;28;20050;-69
2022/01/21 10:18:06;;;;;;;5.47;2.08;;;;;;;;;;4929360;28;20445;-69
2022/01/21 10:20:31;;;;;;;4.88;2.15;;;;;;;;;;4930389;28;20038;-72
2022/01/21 10:23:08;;;;;;;3.53;1.67;;;;;;;;;;4929910;28;20544;-69
2022/01/21 10:25:35;;;;;;;7.03;1.98;;;;;;;;;;4929661;28;20345;-70
2022/01/21 10:28:27;;;;;;;3.67;1.90;;;;;;;;;;4928648;28;20449;-69
2022/01/21 10:31:10;;;;;;;4.55;1.90;;;;;;;;;;4928908;28;20608;-70
2022/01/21 10:33:59;;;;;;;5.35;1.70;;;;;;;;;;4930347;28;20030;-69
2022/01/21 10:36:28;;;;;;;4.00;1.98;;;;;;;;;;4912865;28;20333;-69
2022/01/21 10:39:11;;;;;;;5.22;2.45;;;;;;;;;;4930799;28;20314;-69
2022/01/21 10:41:43;;;;;;;4.68;2.38;;;;;;;;;;4944782;28;20365;-69
2022/01/21 10:44:14;;;;;;;4.22;1.88;;;;;;;;;;4745273;28;5001363;-69
2022/01/21 10:46:41;;;;;;;2.80;1.40;;;;;;;;;;4928484;28;20329;-70
2022/01/21 10:49:14;;;;;;;5.97;2.22;;;;;;;;;;4929234;28;20334;-69
2022/01/21 10:51:41;;;;;;;5.13;2.08;;;;;;;;;;4929333;28;20034;-69
2022/01/21 10:54:16;;;;;;;2.97;1.80;;;;;;;;;;4928478;28;20354;-69
2022/01/21 10:57:02;;;;;;;5.05;1.80;;;;;;;;;;4928851;28;20445;-69
2022/01/21 10:59:43;;;;;;;5.40;1.80;;;;;;;;;;4928682;28;20388;-69
2022/01/21 11:02:09;;;;;;;4.40;1.40;;;;;;;;;;4930028;28;20329;-69
2022/01/21 11:04:42;;;;;;;3.03;1.55;;;;;;;;;;4931083;28;20409;-70
2022/01/21 11:07:08;;;;;;;4.32;1.92;;;;;;;;;;4949168;28;20429;-69
2022/01/21 11:09:37;;;;;;;4.82;1.90;;;;;;;;;;4951476;28;20487;-69
2022/01/21 11:12:11;;;;;;;5.45;2.10;;;;;;;;;;4932822;28;20294;-69
2022/01/21 11:14:50;;;;;;;4.20;1.50;;;;;;;;;;4931797;28;20456;-69
2022/01/21 11:17:16;;;;;;;4.25;2.20;;;;;;;;;;4931703;28;20388;-69
2022/01/21 11:20:06;;;;;;;7.45;2.30;;;;;;;;;;4949388;28;20348;-69
2022/01/21 11:22:55;;;;;;;3.53;2.05;;;;;;;;;;4932107;28;20522;-69
2022/01/21 11:25:43;;;;;;;4.90;2.20;;;;;;;;;;4948329;28;20345;-69
2022/01/21 11:28:12;;;;;;;7.65;1.92;;;;;;;;;;4949542;28;20368;-71
2022/01/21 11:30:37;;;;;;;3.63;1.85;;;;;;;;;;4931615;28;20417;-69
2022/01/21 11:33:03;;;;;;;3.45;1.55;;;;;;;;;;4948673;28;20451;-71
2022/01/21 11:35:29;;;;;;;8.65;2.90;;;;;;;;;;4949640;28;20129;-69
2022/01/21 11:37:56;;;;;;;4.28;2.03;;;;;;;;;;4963934;28;20452;-69
2022/01/21 11:40:22;;;;;;;4.53;1.88;;;;;;;;;;4950237;28;20334;-69
2022/01/21 11:42:48;;;;;;;9.40;2.28;;;;;;;;;;4952568;28;20415;-69
2022/01/21 11:50:30;;;;;;;3.72;1.98;;;;;;;;;;4966294;28;20500;-69
2022/01/21 11:52:56;;;;;;;4.22;2.08;;;;;;;;;;4918850;28;20353;-69
2022/01/21 11:55:45;;;;;;;7.70;3.30;;;;;;;;;;4934850;28;20404;-69
2022/01/21 11:58:13;;;;;;;9.18;2.08;;;;;;;;;;4966580;28;20049;-69
2022/01/21 12:00:40;;;;;;;5.80;2.50;;;;;;;;;;4934716;28;20340;-68
2022/01/21 12:03:06;;;;;;;7.63;2.65;;;;;;;;;;4935053;28;20322;-69
2022/01/21 12:05:33;;;;;;;4.68;2.35;;;;;;;;;;4951750;28;20062;-69
2022/01/21 12:08:03;;;;;;;6.13;2.38;;;;;;;;;;4934992;28;20353;-70
2022/01/21 12:10:31;;;;;;;5.70;2.35;;;;;;;;;;4951711;28;20053;-69
2022/01/21 12:13:11;;;;;;;4.70;2.03;;;;;;;;;;4952463;28;20332;-69
2022/01/21 12:19:05;;;;;;;7.97;2.40;;;;;;;;;;4951688;28;20448;-69
2022/01/21 12:21:33;;;;;;;7.43;2.75;;;;;;;;;;4952054;28;20100;-69
2022/01/21 12:24:00;;;;;;;4.57;2.70;;;;;;;;;;4951686;28;20372;-69
2022/01/21 12:26:26;;;;;;;3.90;1.75;;;;;;;;;;4951695;28;20326;-69
2022/01/21 12:28:54;;;;;;;10.20;3.40;;;;;;;;;;4951917;28;20535;-69
2022/01/21 12:31:21;;;;;;;6.07;2.70;;;;;;;;;;4951435;28;20399;-69
2022/01/21 12:33:58;;;;;;;10.55;3.67;;;;;;;;;;4950251;28;20337;-69
2022/01/21 12:36:27;;;;;;;7.65;3.33;;;;;;;;;;4951125;28;20041;-69
2022/01/21 12:41:17;;;;;;;6.97;2.75;;;;;;;;;;4951406;28;20467;-68
2022/01/21 12:43:48;;;;;;;9.20;2.55;;;;;;;;;;4951549;28;20029;-69
2022/01/21 12:46:29;;;;;;;8.98;2.95;;;;;;;;;;4966216;28;20392;-71
2022/01/21 12:48:56;;;;;;;7.20;2.70;;;;;;;;;;4933443;28;20341;-69
2022/01/21 12:56:49;;;;;;;6.38;2.47;;;;;;;;;;4964846;28;20424;-69
2022/01/21 12:59:20;;;;;;;8.07;3.33;;;;;;;;;;4949138;28;20446;-69
2022/01/21 13:01:47;;;;;;;13.73;3.80;;;;;;;;;;4933474;28;20030;-69
2022/01/21 13:04:35;;;;;;;10.63;3.65;;;;;;;;;;4965919;28;20385;-69
2022/01/21 13:07:06;;;;;;;8.35;3.65;;;;;;;;;;4912753;28;20516;-69
2022/01/21 13:09:46;;;;;;;9.82;4.13;;;;;;;;;;4912295;28;20345;-69
2022/01/21 13:12:13;;;;;;;11.73;3.13;;;;;;;;;;4911195;28;20382;-69
2022/01/21 13:14:45;;;;;;;10.85;4.18;;;;;;;;;;4912120;28;20462;-71
2022/01/21 13:17:14;;;;;;;9.40;3.47;;;;;;;;;;4912477;28;20373;-69
2022/01/21 13:19:48;;;;;;;8.82;3.20;;;;;;;;;;4912489;28;20365;-70
2022/01/21 13:22:35;;;;;;;17.45;4.47;;;;;;;;;;4926591;28;20039;-69
2022/01/21 13:25:10;;;;;;;14.52;3.65;;;;;;;;;;4910386;28;20430;-69
2022/01/21 13:27:46;;;;;;;20.95;5.05;;;;;;;;;;4910751;28;21022;-69
2022/01/21 13:30:14;;;;;;;10.25;4.22;;;;;;;;;;4910693;28;20474;-69
2022/01/21 13:32:39;;;;;;;9.25;3.30;;;;;;;;;;4911104;28;20414;-69
2022/01/21 13:35:25;;;;;;;8.73;3.38;;;;;;;;;;4911786;28;20486;-69
2022/01/21 13:38:14;;;;;;;12.13;3.33;;;;;;;;;;4909879;28;20505;-70
2022/01/21 13:40:43;;;;;;;8.40;2.95;;;;;;;;;;4910846;28;20030;-69
2022/01/21 13:43:17;;;;;;;9.23;3.50;;;;;;;;;;4926433;28;20430;-70
2022/01/21 13:45:56;;;;;;;12.43;3.63;;;;;;;;;;4910070;28;20679;-69
2022/01/21 13:48:23;;;;;;;12.82;4.03;;;;;;;;;;4911795;28;20326;-69
2022/01/21 13:50:49;;;;;;;12.13;4.10;;;;;;;;;;4909700;28;20422;-69
2022/01/21 13:53:14;;;;;;;19.92;4.15;;;;;;;;;;4910491;28;20394;-69
2022/01/21 13:55:48;;;;;;;20.55;4.40;;;;;;;;;;4911444;28;20031;-69
2022/01/21 13:58:22;;;;;;;25.15;5.05;;;;;;;;;;4910481;28;20429;-69
2022/01/21 14:01:02;;;;;;;17.65;5.07;;;;;;;;;;4909231;28;20426;-68
2022/01/21 14:03:34;;;;;;;14.88;5.47;;;;;;;;;;4910002;28;20462;-68
2022/01/21 14:06:09;;;;;;;17.67;5.50;;;;;;;;;;4935694;28;20411;-67
2022/01/21 14:08:38;;;;;;;17.02;4.60;;;;;;;;;;4931239;28;20522;-68
2022/01/21 14:11:08;;;;;;;13.23;4.13;;;;;;;;;;4931800;28;20030;-65
2022/01/21 14:13:36;;;;;;;17.75;4.03;;;;;;;;;;4949686;28;20412;-68
2022/01/21 14:16:05;;;;;;;37.70;3.87;;;;;;;;;;4950725;28;20325;-67
2022/01/21 14:18:36;;;;;;;11.88;3.58;;;;;;;;;;4932592;28;20437;-68
2022/01/21 14:21:12;;;;;;;11.85;3.63;;;;;;;;;;4931939;28;20365;-68
2022/01/21 14:23:38;;;;;;;12.90;4.55;;;;;;;;;;4931353;28;20330;-70
2022/01/21 14:26:15;;;;;;;109.32;25.05;;;;;;;;;;4958588;28;20356;-68
2022/01/21 14:28:45;;;;;;;44.97;13.05;;;;;;;;;;4946240;28;20116;-68
2022/01/21 14:31:30;;;;;;;26.73;9.25;;;;;;;;;;4957712;28;20791;-67
2022/01/21 14:33:56;;;;;;;25.58;9.07;;;;;;;;;;4969550;28;20420;-68
2022/01/21 14:36:21;;;;;;;31.02;9.18;;;;;;;;;;4969095;28;20347;-68
2022/01/21 14:38:48;;;;;;;24.25;8.63;;;;;;;;;;4951040;28;20463;-68
2022/01/21 14:41:24;;;;;;;45.22;10.00;;;;;;;;;;4969107;28;20048;-68
2022/01/21 14:43:54;;;;;;;32.80;9.63;;;;;;;;;;4969045;28;20556;-67
2022/01/21 14:46:24;;;;;;;29.95;9.48;;;;;;;;;;4968807;28;20379;-67
2022/01/21 14:48:57;;;;;;;28.65;9.10;;;;;;;;;;4969159;28;20401;-67
2022/01/21 14:51:35;;;;;;;43.60;9.35;;;;;;;;;;4969856;28;20055;-67
2022/01/21 14:54:10;;;;;;;51.60;10.77;;;;;;;;;;4969744;28;20500;-66
2022/01/21 14:56:36;;;;;;;34.25;8.45;;;;;;;;;;4950856;28;20425;-67
2022/01/21 14:59:09;;;;;;;24.52;7.53;;;;;;;;;;4967942;28;20439;-67
2022/01/21 15:01:34;;;;;;;23.92;6.88;;;;;;;;;;4950213;28;20184;-67
2022/01/21 15:04:11;;;;;;;25.20;9.00;;;;;;;;;;4968817;28;20037;-67
2022/01/21 15:06:38;;;;;;;21.75;6.45;;;;;;;;;;4949506;28;20046;-67
2022/01/21 15:09:03;;;;;;;16.25;5.57;;;;;;;;;;4949121;28;20022;-67
2022/01/21 15:14:33;;;;;;;18.70;5.28;;;;;;;;;;4930325;28;20426;-67
2022/01/21 15:17:17;;;;;;;21.05;5.50;;;;;;;;;;4951798;28;20137;-68
2022/01/21 15:19:49;;;;;;;16.25;5.60;;;;;;;;;;4933550;28;20021;-66
2022/01/21 15:22:24;;;;;;;21.40;6.80;;;;;;;;;;4952221;28;20065;-67
2022/01/21 15:24:51;;;;;;;27.48;7.75;;;;;;;;;;4952253;28;20318;-66
2022/01/21 15:27:16;;;;;;;16.77;4.53;;;;;;;;;;4950215;28;20457;-66
2022/01/21 15:29:42;;;;;;;13.88;4.80;;;;;;;;;;4952287;28;20461;-66
2022/01/21 15:32:09;;;;;;;19.30;5.10;;;;;;;;;;4950849;28;20346;-66
2022/01/21 15:34:35;;;;;;;19.80;5.95;;;;;;;;;;4951408;28;20444;-66
2022/01/21 15:37:00;;;;;;;16.52;5.53;;;;;;;;;;4953132;28;20459;-67
2022/01/21 15:39:26;;;;;;;15.07;5.65;;;;;;;;;;4951347;28;20085;-66
2022/01/21 15:41:51;;;;;;;16.20;5.10;;;;;;;;;;4952548;28;20030;-66
2022/01/21 15:44:17;;;;;;;17.50;5.80;;;;;;;;;;4952618;28;20425;-67
2022/01/21 15:46:42;;;;;;;15.63;4.63;;;;;;;;;;4950905;28;20424;-66
2022/01/21 15:49:08;;;;;;;18.67;4.40;;;;;;;;;;4951913;28;20443;-67
2022/01/21 15:51:34;;;;;;;14.43;4.60;;;;;;;;;;4950712;28;20480;-67
2022/01/21 15:53:59;;;;;;;13.02;4.40;;;;;;;;;;4950814;28;20041;-67